Time;durP1;ratioP1;P1;durP2;ratioP2;P2;SDS_P1;SDS_P2;PMS_P1;PMS_P2;Temp;Humidity;BMP_temperature;BMP_pressure;BME280_temperature;BME280_humidity;BME280_pressure;Samples;Min_cycle;Max_cycle;Signal;HPM_P1;HPM_P2
2023/11/21 00:02:52;;;;;;;39.13;14.60;;;9.30;91.00;;;;;;9160932;19;21985;-69
2023/11/21 00:05:57;;;;;;;43.75;16.45;;;9.30;91.10;;;;;;9161779;19;20391;-69
2023/11/21 00:09:05;;;;;;;47.78;16.27;;;9.30;91.10;;;;;;9161850;19;20018;-69
2023/11/21 00:12:13;;;;;;;36.63;15.20;;;9.30;91.10;;;;;;9163029;19;20504;-68
2023/11/21 00:15:21;;;;;;;43.50;16.63;;;9.40;91.10;;;;;;9159682;19;20014;-69
2023/11/21 00:18:26;;;;;;;44.22;16.60;;;9.30;91.10;;;;;;9163262;19;20014;-70
2023/11/21 00:21:34;;;;;;;37.42;14.48;;;9.30;91.10;;;;;;9158330;19;20381;-73
2023/11/21 00:24:39;;;;;;;48.42;15.88;;;9.40;91.10;;;;;;9162277;19;20022;-72
2023/11/21 00:27:49;;;;;;;43.58;17.00;;;9.40;91.10;;;;;;9161407;19;20025;-72
2023/11/21 00:30:55;;;;;;;46.88;16.45;;;9.40;91.10;;;;;;9158358;19;20488;-72
2023/11/21 00:34:02;;;;;;;41.58;15.27;;;9.40;91.10;;;;;;9156422;19;20021;-73
2023/11/21 00:37:07;;;;;;;53.30;15.98;;;9.40;91.10;;;;;;9160699;19;20052;-72
2023/11/21 00:40:15;;;;;;;35.90;14.70;;;9.40;91.10;;;;;;9160109;19;20034;-73
2023/11/21 00:43:24;;;;;;;43.58;15.73;;;9.40;91.10;;;;;;9157269;19;20054;-72
2023/11/21 00:46:32;;;;;;;48.97;15.98;;;9.40;91.10;;;;;;9159935;19;20310;-73
2023/11/21 00:49:39;;;;;;;41.63;14.75;;;9.40;91.10;;;;;;9160235;19;20026;-73
2023/11/21 00:52:46;;;;;;;51.13;16.67;;;9.40;91.10;;;;;;9159690;19;20019;-74
2023/11/21 00:55:52;;;;;;;45.70;16.15;;;9.40;91.10;;;;;;9161153;19;20049;-73
2023/11/21 00:59:02;;;;;;;41.78;17.10;;;9.30;91.20;;;;;;9159026;19;20061;-73
2023/11/21 01:02:10;;;;;;;38.78;16.52;;;9.40;91.10;;;;;;9157198;19;20338;-72
2023/11/21 01:05:18;;;;;;;44.95;17.38;;;9.30;91.20;;;;;;9155466;19;20014;-72
2023/11/21 01:08:24;;;;;;;40.08;17.13;;;9.40;91.20;;;;;;9160200;19;20019;-71
2023/11/21 01:11:32;;;;;;;39.67;16.10;;;9.40;91.20;;;;;;9156677;19;20018;-72
2023/11/21 01:14:40;;;;;;;43.85;16.20;;;9.30;91.10;;;;;;9158049;19;20011;-73
2023/11/21 01:17:48;;;;;;;38.53;16.88;;;9.30;91.20;;;;;;9158686;19;20007;-73
2023/11/21 01:20:54;;;;;;;40.08;16.50;;;9.30;91.20;;;;;;9160457;19;20019;-74
2023/11/21 01:24:02;;;;;;;45.17;15.45;;;9.30;91.40;;;;;;9161589;19;20015;-74
2023/11/21 01:27:08;;;;;;;45.33;15.93;;;9.40;91.40;;;;;;9168577;19;20035;-72
2023/11/21 01:30:19;;;;;;;43.65;16.83;;;9.30;91.70;;;;;;9166454;19;20496;-71
2023/11/21 01:33:25;;;;;;;46.67;16.33;;;9.30;91.50;;;;;;9167437;19;20368;-69
2023/11/21 01:36:35;;;;;;;41.53;16.73;;;9.40;91.90;;;;;;9166478;19;20106;-73
2023/11/21 01:39:40;;;;;;;34.53;16.05;;;9.30;92.30;;;;;;9163707;19;20582;-71
2023/11/21 01:42:48;;;;;;;38.42;15.60;;;9.30;92.00;;;;;;9164989;19;20026;-69
2023/11/21 01:45:57;;;;;;;37.35;16.20;;;9.30;91.20;;;;;;9166220;19;20767;-69
2023/11/21 01:49:05;;;;;;;43.78;17.05;;;9.30;91.30;;;;;;9166252;19;20014;-70
2023/11/21 01:52:11;;;;;;;44.25;17.88;;;9.40;92.30;;;;;;9165668;19;20395;-71
2023/11/21 01:55:20;;;;;;;43.45;15.98;;;9.40;92.30;;;;;;9163873;19;20022;-70
2023/11/21 01:58:34;;;;;;;40.03;16.27;;;9.30;91.10;;;;;;9166024;19;20015;-71
2023/11/21 02:01:45;;;;;;;40.05;17.33;;;9.30;91.10;;;;;;9162172;19;20033;-71
2023/11/21 02:04:52;;;;;;;43.90;17.63;;;9.30;91.10;;;;;;9166871;19;20026;-72
2023/11/21 02:08:00;;;;;;;40.47;16.73;;;9.30;91.10;;;;;;9165717;19;20025;-71
2023/11/21 02:11:06;;;;;;;52.45;17.38;;;9.30;91.10;;;;;;9163765;19;20048;-71
2023/11/21 02:14:13;;;;;;;57.75;19.45;;;9.30;91.10;;;;;;9165027;19;20018;-71
2023/11/21 02:17:22;;;;;;;39.03;16.45;;;9.30;91.20;;;;;;9163516;19;20017;-72
2023/11/21 02:20:30;;;;;;;47.78;18.25;;;9.30;91.20;;;;;;9165753;19;20018;-73
2023/11/21 02:23:42;;;;;;;41.75;16.90;;;9.40;91.20;;;;;;9167323;19;20836;-71
2023/11/21 02:26:51;;;;;;;38.28;17.10;;;9.30;91.10;;;;;;9161669;19;20487;-72
2023/11/21 02:29:56;;;;;;;35.15;16.15;;;9.30;91.20;;;;;;9165834;19;20029;-71
2023/11/21 02:33:06;;;;;;;42.90;18.48;;;9.40;91.30;;;;;;9165052;19;20699;-70
2023/11/21 02:36:12;;;;;;;37.75;16.08;;;9.40;91.40;;;;;;9159460;19;20025;-70
2023/11/21 02:39:22;;;;;;;55.45;18.65;;;9.30;91.50;;;;;;9167082;19;20483;-70
2023/11/21 02:42:27;;;;;;;34.40;17.35;;;9.50;92.80;;;;;;9164730;19;20515;-70
2023/11/21 02:45:36;;;;;;;44.28;18.35;;;9.40;91.70;;;;;;9160206;19;20018;-71
2023/11/21 02:48:41;;;;;;;40.83;16.85;;;9.50;91.60;;;;;;9166218;19;20026;-70
2023/11/21 02:51:49;;;;;;;42.50;17.52;;;9.50;91.70;;;;;;9165832;19;20021;-72
2023/11/21 02:54:57;;;;;;;44.95;18.92;;;9.50;91.80;;;;;;9163346;19;20022;-71
2023/11/21 02:58:06;;;;;;;45.15;17.27;;;9.50;92.10;;;;;;9163397;19;20014;-71
2023/11/21 03:01:12;;;;;;;56.47;19.52;;;9.50;92.10;;;;;;9161515;19;20022;-70
2023/11/21 03:04:20;;;;;;;45.90;18.73;;;9.50;92.40;;;;;;9164269;19;20019;-71
2023/11/21 03:07:26;;;;;;;46.53;18.70;;;9.50;92.60;;;;;;9161819;19;20060;-73
2023/11/21 03:10:36;;;;;;;51.50;17.33;;;9.50;92.40;;;;;;9163413;19;20022;-71
2023/11/21 03:13:42;;;;;;;46.10;19.33;;;9.60;92.80;;;;;;9162112;19;20022;-71
2023/11/21 03:16:50;;;;;;;46.75;17.95;;;9.50;91.50;;;;;;9165125;19;20030;-72
2023/11/21 03:19:57;;;;;;;42.55;18.15;;;9.50;91.60;;;;;;9163825;19;20030;-70
2023/11/21 03:23:05;;;;;;;44.17;18.02;;;9.50;91.80;;;;;;9163363;19;20010;-71
2023/11/21 03:26:14;;;;;;;50.63;18.80;;;9.50;91.70;;;;;;9163931;19;20014;-71
2023/11/21 03:29:22;;;;;;;52.55;19.55;;;9.50;91.90;;;;;;9163804;19;20023;-72
2023/11/21 03:32:27;;;;;;;54.55;19.08;;;9.50;91.90;;;;;;9163208;19;20278;-70
2023/11/21 03:35:35;;;;;;;56.38;19.50;;;9.50;91.90;;;;;;9160954;19;20011;-71
2023/11/21 03:38:41;;;;;;;47.28;20.33;;;9.60;92.60;;;;;;9162267;19;20021;-73
2023/11/21 03:41:51;;;;;;;47.92;19.77;;;9.60;94.90;;;;;;9162831;19;20029;-72
2023/11/21 03:44:57;;;;;;;45.25;19.75;;;10.30;92.70;;;;;;9157284;19;20502;-70
2023/11/21 03:48:04;;;;;;;55.40;20.70;;;9.80;93.50;;;;;;9161699;19;20010;-72
2023/11/21 03:51:10;;;;;;;46.10;19.65;;;9.50;91.30;;;;;;9162696;19;20051;-71
2023/11/21 03:54:18;;;;;;;42.97;17.80;;;9.50;91.30;;;;;;9160692;19;20636;-71
2023/11/21 03:57:27;;;;;;;45.97;17.70;;;9.50;91.20;;;;;;9164104;19;20014;-71
2023/11/21 04:00:35;;;;;;;47.15;18.42;;;9.50;91.30;;;;;;9161025;19;20278;-72
2023/11/21 04:03:40;;;;;;;52.95;19.27;;;9.50;91.30;;;;;;9161682;19;20018;-71
2023/11/21 04:06:48;;;;;;;47.90;18.88;;;9.60;91.30;;;;;;9157174;19;20423;-71
2023/11/21 04:09:53;;;;;;;47.08;18.40;;;9.60;91.30;;;;;;9161723;19;20029;-71
2023/11/21 04:13:03;;;;;;;46.90;18.92;;;9.60;91.30;;;;;;9160067;19;20025;-71
2023/11/21 04:16:09;;;;;;;49.30;19.58;;;9.60;91.30;;;;;;9159127;19;20098;-71
2023/11/21 04:19:17;;;;;;;51.55;19.02;;;9.60;91.30;;;;;;9159350;19;20482;-71
2023/11/21 04:22:22;;;;;;;47.75;18.70;;;9.50;91.30;;;;;;9162419;19;20478;-70
2023/11/21 04:25:30;;;;;;;51.90;19.88;;;9.60;91.30;;;;;;9160133;19;20025;-72
2023/11/21 04:28:38;;;;;;;45.17;18.73;;;9.60;91.30;;;;;;9161423;19;20022;-71
2023/11/21 04:31:46;;;;;;;48.33;18.98;;;9.60;91.30;;;;;;9161091;19;20439;-71
2023/11/21 04:34:51;;;;;;;52.17;20.75;;;9.60;91.30;;;;;;9160136;19;20019;-71
2023/11/21 04:37:59;;;;;;;61.83;21.35;;;9.60;91.30;;;;;;9160372;19;20110;-70
2023/11/21 04:41:04;;;;;;;52.83;18.60;;;9.60;91.30;;;;;;9160091;19;20106;-71
2023/11/21 04:44:16;;;;;;;47.63;19.02;;;9.60;91.30;;;;;;9156966;19;20011;-71
2023/11/21 04:47:21;;;;;;;48.60;18.73;;;9.60;91.30;;;;;;9160429;19;20766;-72
2023/11/21 04:50:29;;;;;;;54.75;18.30;;;9.60;91.30;;;;;;9158400;19;20018;-72
2023/11/21 04:53:34;;;;;;;57.47;19.95;;;9.60;91.30;;;;;;9160146;19;20011;-71
2023/11/21 04:56:41;;;;;;;49.85;20.05;;;9.60;91.30;;;;;;9158166;19;20021;-71
2023/11/21 04:59:50;;;;;;;47.90;19.15;;;9.60;91.30;;;;;;9162067;19;20058;-72
2023/11/21 05:02:57;;;;;;;47.55;19.02;;;9.60;91.30;;;;;;9166427;19;20376;-72
2023/11/21 05:06:05;;;;;;;46.10;19.33;;;9.60;91.40;;;;;;9168974;19;20015;-72
2023/11/21 05:09:12;;;;;;;57.80;20.10;;;9.60;91.30;;;;;;9168522;19;20074;-72
2023/11/21 05:12:18;;;;;;;61.35;21.00;;;9.60;91.40;;;;;;9171214;19;20025;-71
2023/11/21 05:15:28;;;;;;;50.30;20.65;;;9.60;91.40;;;;;;9168412;19;20262;-72
2023/11/21 05:18:34;;;;;;;46.10;19.40;;;9.60;91.40;;;;;;9167377;19;20026;-72
2023/11/21 05:21:41;;;;;;;61.40;20.65;;;9.60;91.40;;;;;;9168388;19;20230;-72
2023/11/21 05:24:47;;;;;;;45.25;19.15;;;9.60;91.40;;;;;;9168978;19;20094;-72
2023/11/21 05:27:54;;;;;;;45.47;18.90;;;9.60;91.40;;;;;;9169461;19;20014;-72
2023/11/21 05:31:02;;;;;;;45.75;19.58;;;9.60;91.50;;;;;;9167009;19;20653;-71
2023/11/21 05:34:23;;;;;;;46.33;20.13;;;9.60;91.40;;;;;;9168086;19;20375;-71
2023/11/21 05:37:29;;;;;;;49.40;18.90;;;9.60;91.50;;;;;;9166117;19;20063;-71
2023/11/21 05:40:37;;;;;;;47.00;19.70;;;9.60;91.50;;;;;;9167186;19;20006;-71
2023/11/21 05:43:42;;;;;;;47.83;18.60;;;9.60;91.50;;;;;;9163105;19;20098;-71
2023/11/21 05:46:53;;;;;;;43.00;19.27;;;9.60;91.60;;;;;;9169080;19;20025;-71
2023/11/21 05:49:58;;;;;;;53.25;18.90;;;9.70;91.60;;;;;;9167776;19;20031;-72
2023/11/21 05:53:05;;;;;;;45.22;18.90;;;9.60;91.50;;;;;;9165021;19;21016;-71
2023/11/21 05:56:11;;;;;;;48.33;19.45;;;9.70;91.60;;;;;;9167921;19;20026;-72
2023/11/21 05:59:20;;;;;;;50.92;19.65;;;9.70;91.70;;;;;;9165055;19;20015;-73
2023/11/21 06:02:30;;;;;;;50.97;18.80;;;9.80;91.80;;;;;;9167131;19;20033;-71
2023/11/21 06:05:38;;;;;;;42.45;18.38;;;9.90;92.10;;;;;;9168364;19;20353;-71
2023/11/21 06:08:44;;;;;;;44.80;19.27;;;9.70;92.20;;;;;;9166184;19;20683;-72
2023/11/21 06:11:51;;;;;;;43.45;19.58;;;9.70;92.40;;;;;;9167172;19;20025;-73
2023/11/21 06:14:57;;;;;;;48.38;20.30;;;9.70;92.60;;;;;;9166393;19;20019;-70
2023/11/21 06:18:09;;;;;;;40.25;18.25;;;9.80;92.60;;;;;;9165171;19;20748;-71
2023/11/21 06:21:19;;;;;;;44.17;18.75;;;9.80;93.20;;;;;;9166145;19;20018;-71
2023/11/21 06:24:26;;;;;;;45.97;20.33;;;9.80;94.30;;;;;;9164110;19;20018;-70
2023/11/21 06:27:34;;;;;;;46.53;20.02;;;9.30;91.70;;;;;;9164733;19;20029;-71
2023/11/21 06:30:42;;;;;;;45.13;20.33;;;9.70;91.40;;;;;;9163829;19;20014;-70
2023/11/21 06:33:51;;;;;;;38.72;18.40;;;9.60;91.30;;;;;;9166030;19;20017;-73
2023/11/21 06:36:59;;;;;;;44.95;18.80;;;9.10;91.60;;;;;;9165817;19;20033;-71
2023/11/21 06:40:06;;;;;;;41.90;18.77;;;9.60;91.40;;;;;;9164273;19;20067;-72
2023/11/21 06:43:14;;;;;;;44.75;19.52;;;9.60;91.70;;;;;;9161157;19;20018;-71
2023/11/21 06:46:19;;;;;;;48.38;21.52;;;9.70;93.00;;;;;;9166438;19;20512;-71
2023/11/21 06:49:31;;;;;;;45.72;19.33;;;9.60;91.30;;;;;;9164677;19;20014;-71
2023/11/21 06:52:36;;;;;;;43.25;19.55;;;9.60;91.30;;;;;;9164954;19;20390;-71
2023/11/21 06:55:44;;;;;;;45.40;19.35;;;9.60;91.30;;;;;;9163596;19;20022;-72
2023/11/21 06:58:49;;;;;;;49.83;20.50;;;9.60;91.30;;;;;;9160230;19;20500;-70
2023/11/21 07:01:57;;;;;;;48.67;20.95;;;9.70;91.40;;;;;;9163215;19;20014;-72
2023/11/21 07:05:06;;;;;;;48.88;19.90;;;9.70;91.40;;;;;;9162202;19;20017;-71
2023/11/21 07:08:14;;;;;;;50.38;20.17;;;9.70;91.40;;;;;;9164653;19;20029;-71
2023/11/21 07:11:19;;;;;;;53.92;19.92;;;9.70;91.40;;;;;;9160730;19;20018;-71
2023/11/21 07:14:27;;;;;;;53.33;22.08;;;9.70;91.40;;;;;;9159811;19;20106;-71
2023/11/21 07:17:32;;;;;;;47.75;21.25;;;9.70;91.40;;;;;;9159643;19;20018;-70
2023/11/21 07:20:42;;;;;;;50.67;22.02;;;9.70;91.30;;;;;;9164884;19;20029;-72
2023/11/21 07:23:48;;;;;;;53.00;20.40;;;9.70;91.40;;;;;;9161702;19;20539;-69
2023/11/21 07:26:56;;;;;;;50.58;20.70;;;9.70;91.40;;;;;;9161126;19;20026;-69
2023/11/21 07:30:04;;;;;;;55.03;20.80;;;9.70;91.40;;;;;;9161180;19;20023;-68
2023/11/21 07:33:12;;;;;;;55.35;22.42;;;9.70;91.40;;;;;;9160111;19;20014;-71
2023/11/21 07:36:21;;;;;;;57.05;19.90;;;9.70;91.40;;;;;;9155694;19;20356;-70
2023/11/21 07:39:28;;;;;;;55.78;19.75;;;9.70;91.50;;;;;;9160194;19;20410;-69
2023/11/21 07:42:33;;;;;;;49.88;19.90;;;9.70;91.40;;;;;;9163097;19;20018;-69
2023/11/21 07:45:41;;;;;;;45.40;19.40;;;9.70;91.40;;;;;;9156987;19;20026;-69
2023/11/21 07:48:52;;;;;;;49.47;19.75;;;9.70;91.40;;;;;;9162126;19;20518;-70
2023/11/21 07:52:02;;;;;;;54.58;19.70;;;9.70;91.40;;;;;;9160965;19;20011;-69
2023/11/21 07:55:08;;;;;;;43.95;18.95;;;9.70;91.40;;;;;;9160336;19;20368;-70
2023/11/21 07:58:16;;;;;;;52.25;20.83;;;9.70;91.60;;;;;;9162443;19;20464;-68
2023/11/21 08:01:21;;;;;;;61.42;19.77;;;9.70;91.40;;;;;;9163352;19;20018;-69
2023/11/21 08:04:28;;;;;;;50.17;20.02;;;9.70;91.40;;;;;;9162864;19;20022;-69
2023/11/21 08:07:40;;;;;;;60.00;20.85;;;9.70;91.70;;;;;;9163634;19;20018;-69
2023/11/21 08:10:55;;;;;;;46.60;19.38;;;9.80;91.40;;;;;;9163543;19;20026;-69
2023/11/21 08:14:01;;;;;;;49.70;19.83;;;9.80;91.40;;;;;;9161977;19;20021;-71
2023/11/21 08:17:10;;;;;;;55.80;19.10;;;9.80;91.40;;;;;;9163159;19;20022;-69
2023/11/21 08:20:16;;;;;;;57.80;20.33;;;9.80;91.40;;;;;;9163603;19;20021;-69
2023/11/21 08:23:26;;;;;;;50.45;20.42;;;9.80;91.50;;;;;;9161002;19;20029;-68
2023/11/21 08:26:32;;;;;;;51.20;19.60;;;9.80;91.40;;;;;;9160644;19;20027;-68
2023/11/21 08:29:39;;;;;;;44.97;19.65;;;9.80;91.40;;;;;;9160254;19;20029;-70
2023/11/21 08:32:44;;;;;;;51.90;19.58;;;9.80;91.40;;;;;;9162258;19;20026;-71
2023/11/21 08:35:52;;;;;;;48.67;19.08;;;9.80;91.40;;;;;;9165604;19;20021;-73
2023/11/21 08:39:01;;;;;;;49.72;21.58;;;9.90;91.40;;;;;;9168274;19;20033;-73
2023/11/21 08:42:09;;;;;;;45.90;18.40;;;9.90;91.50;;;;;;9168800;19;20042;-75
2023/11/21 08:45:17;;;;;;;50.22;18.20;;;9.90;91.40;;;;;;9164698;19;20883;-73
2023/11/21 08:48:25;;;;;;;45.35;18.80;;;9.90;91.60;;;;;;9166553;19;20010;-75
2023/11/21 08:51:30;;;;;;;56.30;20.75;;;9.90;91.50;;;;;;9169196;19;20048;-74
2023/11/21 08:54:41;;;;;;;39.83;17.30;;;9.90;91.40;;;;;;9171226;19;20726;-72
2023/11/21 08:57:48;;;;;;;40.08;17.05;;;9.90;91.50;;;;;;9169019;19;20513;-74
2023/11/21 09:00:55;;;;;;;38.05;16.75;;;10.00;91.50;;;;;;9170143;19;20018;-74
2023/11/21 09:04:02;;;;;;;37.53;15.93;;;10.00;91.50;;;;;;9169574;19;20524;-73
2023/11/21 09:07:10;;;;;;;37.88;16.63;;;9.90;91.50;;;;;;9166889;19;20500;-73
2023/11/21 09:10:19;;;;;;;38.75;17.33;;;10.00;91.60;;;;;;9168556;19;20022;-74
2023/11/21 09:13:27;;;;;;;31.65;15.65;;;10.00;91.60;;;;;;9167496;19;20015;-73
2023/11/21 09:16:33;;;;;;;32.05;15.27;;;10.00;91.60;;;;;;9166186;19;20696;-73
2023/11/21 09:19:40;;;;;;;38.03;15.57;;;10.10;91.70;;;;;;9161041;19;21649;-72
2023/11/21 09:22:46;;;;;;;47.83;17.27;;;10.10;91.70;;;;;;9166907;19;20041;-73
2023/11/21 09:25:59;;;;;;;36.35;15.10;;;10.10;91.70;;;;;;9167350;19;20415;-73
2023/11/21 09:29:05;;;;;;;33.65;14.68;;;10.20;92.00;;;;;;9166484;19;20014;-72
2023/11/21 09:32:14;;;;;;;35.30;14.45;;;10.20;91.60;;;;;;9166291;19;20026;-74
2023/11/21 09:35:19;;;;;;;40.40;15.73;;;10.20;91.60;;;;;;9165058;19;20022;-73
2023/11/21 09:38:28;;;;;;;41.72;15.82;;;10.20;91.50;;;;;;9162731;19;20037;-74
2023/11/21 09:41:44;;;;;;;45.97;15.85;;;10.20;91.60;;;;;;9164566;19;20771;-72
2023/11/21 09:45:01;;;;;;;41.13;15.80;;;10.30;91.60;;;;;;9158337;19;20021;-73
2023/11/21 09:48:08;;;;;;;39.78;15.82;;;10.30;91.60;;;;;;9166802;19;20020;-74
2023/11/21 09:51:17;;;;;;;46.38;17.20;;;10.30;91.60;;;;;;9163717;19;20019;-72
2023/11/21 09:54:23;;;;;;;43.85;17.20;;;10.30;91.60;;;;;;9161627;19;20011;-72
2023/11/21 09:57:34;;;;;;;47.28;16.48;;;10.40;91.80;;;;;;9167592;19;20026;-73
2023/11/21 10:00:41;;;;;;;46.90;18.48;;;10.40;91.70;;;;;;9162586;19;20018;-73
2023/11/21 10:03:48;;;;;;;48.83;18.35;;;10.40;91.70;;;;;;9167273;19;20030;-72
2023/11/21 10:06:55;;;;;;;45.90;17.60;;;10.50;91.80;;;;;;9159498;19;20045;-73
2023/11/21 10:10:04;;;;;;;49.33;19.30;;;10.50;91.90;;;;;;9164569;19;20014;-73
2023/11/21 10:13:16;;;;;;;42.83;17.65;;;10.50;91.80;;;;;;9161967;19;20022;-72
2023/11/21 10:16:27;;;;;;;48.15;18.20;;;10.50;91.80;;;;;;9165622;19;20018;-73
2023/11/21 10:19:33;;;;;;;48.63;18.35;;;10.50;91.80;;;;;;9164239;19;20054;-72
2023/11/21 10:22:43;;;;;;;44.97;18.73;;;10.60;92.30;;;;;;9163755;19;20026;-72
2023/11/21 10:25:49;;;;;;;51.33;19.42;;;10.60;92.50;;;;;;9165570;19;20110;-73
2023/11/21 10:29:04;;;;;;;49.80;19.50;;;10.70;93.20;;;;;;9165203;19;20048;-73
2023/11/21 10:32:09;;;;;;;47.40;20.08;;;10.70;92.20;;;;;;9162876;19;20040;-74
2023/11/21 10:35:17;;;;;;;48.42;20.33;;;10.70;92.00;;;;;;9164375;19;20020;-74
2023/11/21 10:38:24;;;;;;;42.25;17.05;;;10.90;93.70;;;;;;9165372;19;20030;-73
2023/11/21 10:41:31;;;;;;;49.00;19.63;;;10.80;91.70;;;;;;9161263;19;20247;-73
2023/11/21 10:44:40;;;;;;;41.08;17.52;;;10.80;91.70;;;;;;9158252;19;20102;-72
2023/11/21 10:47:47;;;;;;;39.53;17.13;;;10.80;91.60;;;;;;9159854;19;20744;-73
2023/11/21 10:50:54;;;;;;;35.80;15.52;;;10.90;91.60;;;;;;9160531;19;20075;-73
2023/11/21 10:54:02;;;;;;;37.25;16.23;;;10.90;91.60;;;;;;9159164;19;20026;-70
2023/11/21 10:57:08;;;;;;;37.03;14.98;;;10.90;91.60;;;;;;9153915;19;20015;-71
2023/11/21 11:00:20;;;;;;;33.22;14.27;;;10.90;91.60;;;;;;9158725;19;20021;-69
2023/11/21 11:03:26;;;;;;;36.00;14.18;;;10.90;91.60;;;;;;9161540;19;20378;-70
2023/11/21 11:06:33;;;;;;;31.98;13.52;;;10.90;91.60;;;;;;9159187;19;20022;-71
2023/11/21 11:09:44;;;;;;;36.20;12.35;;;10.90;91.60;;;;;;9161914;19;20022;-72
2023/11/21 11:12:52;;;;;;;29.08;12.00;;;10.90;91.50;;;;;;9164903;19;20456;-72
2023/11/21 11:16:06;;;;;;;23.15;11.27;;;10.90;91.60;;;;;;9160832;19;20030;-73
2023/11/21 11:19:16;;;;;;;28.20;11.20;;;10.90;91.60;;;;;;9159698;19;20054;-73
2023/11/21 11:22:32;;;;;;;29.13;12.73;;;10.90;91.50;;;;;;9162528;19;20022;-74
2023/11/21 11:26:06;;;;;;;25.40;10.57;;;10.90;91.50;;;;;;9161627;19;20811;-72
2023/11/21 11:29:20;;;;;;;25.60;11.20;;;10.90;91.50;;;;;;9161853;19;20018;-72
2023/11/21 11:32:42;;;;;;;27.33;12.63;;;10.90;91.50;;;;;;9161339;19;20018;-71
2023/11/21 11:35:56;;;;;;;26.55;12.75;;;10.80;91.50;;;;;;9160874;19;20014;-71
2023/11/21 11:39:05;;;;;;;32.65;12.98;;;10.80;91.60;;;;;;9157436;19;20025;-76
2023/11/21 11:42:14;;;;;;;31.38;13.40;;;10.80;91.50;;;;;;9160081;19;20048;-71
2023/11/21 11:45:22;;;;;;;31.30;14.25;;;10.80;91.50;;;;;;9153458;19;20018;-71
2023/11/21 11:48:30;;;;;;;33.67;14.23;;;10.70;91.70;;;;;;9155828;19;20133;-71
2023/11/21 11:51:37;;;;;;;26.02;13.18;;;10.70;91.70;;;;;;9160211;19;20045;-70
2023/11/21 11:54:43;;;;;;;27.45;12.63;;;10.60;91.80;;;;;;9161503;19;20018;-72
2023/11/21 11:57:55;;;;;;;24.13;11.30;;;10.60;91.90;;;;;;9159382;19;20029;-69
2023/11/21 12:01:00;;;;;;;21.38;10.75;;;10.60;92.00;;;;;;9155699;19;20026;-71
2023/11/21 12:04:34;;;;;;;20.77;10.77;;;10.60;93.10;;;;;;9160288;19;20043;-71
2023/11/21 12:07:48;;;;;;;21.98;10.45;;;10.60;93.10;;;;;;9160836;19;20041;-72
2023/11/21 12:10:57;;;;;;;18.10;9.05;;;10.60;93.20;;;;;;9160097;19;20887;-72
2023/11/21 12:14:05;;;;;;;18.17;9.15;;;9.90;91.80;;;;;;9149080;19;20614;-73
2023/11/21 12:17:13;;;;;;;17.75;9.13;;;10.50;93.20;;;;;;9155751;19;20022;-72
2023/11/21 12:20:22;;;;;;;16.70;9.18;;;10.30;91.70;;;;;;9158624;19;20491;-71
2023/11/21 12:23:30;;;;;;;17.88;9.75;;;10.40;91.70;;;;;;9154065;19;20010;-73
2023/11/21 12:26:36;;;;;;;24.08;10.50;;;10.50;91.70;;;;;;9159079;19;20046;-73
2023/11/21 12:29:43;;;;;;;21.10;10.65;;;10.50;91.70;;;;;;9158349;19;20015;-73
2023/11/21 12:32:51;;;;;;;24.60;13.15;;;10.50;91.60;;;;;;9157078;19;20014;-72
2023/11/21 12:36:06;;;;;;;22.42;11.82;;;10.50;91.50;;;;;;9155526;19;20097;-72
2023/11/21 12:39:11;;;;;;;25.10;12.27;;;10.50;91.50;;;;;;9152966;19;20257;-73
2023/11/21 12:42:20;;;;;;;24.17;12.20;;;10.50;91.60;;;;;;9146554;19;20040;-72
2023/11/21 12:45:28;;;;;;;21.60;12.35;;;10.50;91.50;;;;;;9141295;19;20105;-72
2023/11/21 12:48:35;;;;;;;21.10;10.75;;;10.50;91.70;;;;;;9154594;19;20022;-72
2023/11/21 12:51:44;;;;;;;17.70;10.82;;;10.50;92.00;;;;;;9159790;19;20018;-71
2023/11/21 12:54:51;;;;;;;17.75;10.70;;;10.60;92.40;;;;;;9156614;19;20021;-71
2023/11/21 12:57:58;;;;;;;19.92;9.13;;;10.40;91.30;;;;;;9158971;19;20033;-73
2023/11/21 13:01:11;;;;;;;14.93;9.32;;;10.30;91.20;;;;;;9156864;19;20018;-71
2023/11/21 13:04:18;;;;;;;12.43;8.48;;;10.30;91.20;;;;;;9157440;19;20015;-71
2023/11/21 13:07:28;;;;;;;14.60;8.57;;;10.30;91.20;;;;;;9158434;19;20022;-73
2023/11/21 13:10:36;;;;;;;12.02;8.02;;;10.20;91.20;;;;;;9158986;19;20014;-72
2023/11/21 13:13:45;;;;;;;16.45;7.50;;;10.20;91.20;;;;;;9158992;19;20019;-70
2023/11/21 13:16:51;;;;;;;16.00;8.38;;;10.20;91.10;;;;;;9157926;19;20419;-70
2023/11/21 13:19:59;;;;;;;10.57;7.53;;;10.20;91.10;;;;;;9152804;19;20018;-72
2023/11/21 13:23:11;;;;;;;13.55;7.35;;;10.10;91.10;;;;;;9165669;19;20102;-70
2023/11/21 13:26:20;;;;;;;10.13;7.07;;;10.10;91.10;;;;;;9167943;19;20030;-72
2023/11/21 13:29:26;;;;;;;14.68;7.68;;;10.10;91.10;;;;;;9167153;19;20029;-72
2023/11/21 13:32:33;;;;;;;14.43;8.07;;;10.10;91.00;;;;;;9169567;19;20034;-70
2023/11/21 13:35:41;;;;;;;11.13;7.57;;;10.10;91.00;;;;;;9168091;19;20015;-71
2023/11/21 13:38:52;;;;;;;11.63;7.57;;;10.10;91.00;;;;;;9167013;19;20026;-73
2023/11/21 13:41:58;;;;;;;10.93;7.40;;;10.10;91.00;;;;;;9165988;19;20648;-70
2023/11/21 13:45:07;;;;;;;11.75;7.25;;;10.10;90.90;;;;;;9164885;19;20015;-73
2023/11/21 13:48:13;;;;;;;10.15;6.20;;;10.10;90.90;;;;;;9168956;19;20106;-72
2023/11/21 13:51:29;;;;;;;12.60;7.68;;;10.10;90.90;;;;;;9167008;19;20011;-71
2023/11/21 13:54:37;;;;;;;8.35;5.88;;;10.00;90.80;;;;;;9168329;19;20018;-69
2023/11/21 13:57:49;;;;;;;10.23;6.05;;;10.00;90.80;;;;;;9167505;19;20014;-69
2023/11/21 14:00:58;;;;;;;10.55;6.13;;;10.00;90.80;;;;;;9166847;19;20018;-70
2023/11/21 14:04:19;;;;;;;12.30;6.97;;;10.00;90.90;;;;;;9166164;19;20014;-69
2023/11/21 14:07:35;;;;;;;10.02;6.55;;;10.00;91.10;;;;;;9166331;19;20551;-71
2023/11/21 14:10:50;;;;;;;11.68;6.88;;;10.30;92.10;;;;;;9166299;19;20022;-72
2023/11/21 14:13:56;;;;;;;12.52;7.28;;;10.00;91.70;;;;;;9167792;19;20369;-70
2023/11/21 14:17:06;;;;;;;9.73;6.07;;;10.10;92.30;;;;;;9165343;19;20025;-71
2023/11/21 14:20:15;;;;;;;10.85;6.57;;;9.90;90.70;;;;;;9162621;19;20019;-71
2023/11/21 14:23:24;;;;;;;10.13;6.43;;;9.90;90.70;;;;;;9164424;19;20025;-73
2023/11/21 14:26:33;;;;;;;11.00;6.25;;;9.80;90.70;;;;;;9164829;19;20022;-72
2023/11/21 14:29:44;;;;;;;11.70;5.85;;;9.80;90.60;;;;;;9164006;19;20010;-73
2023/11/21 14:32:50;;;;;;;10.18;6.03;;;9.80;90.60;;;;;;9162674;19;20018;-72
2023/11/21 14:35:58;;;;;;;12.35;6.30;;;9.80;90.60;;;;;;9166472;19;20025;-72
2023/11/21 14:39:07;;;;;;;11.77;6.90;;;9.80;90.60;;;;;;9162449;19;20027;-73
2023/11/21 14:42:24;;;;;;;11.25;6.75;;;9.80;90.60;;;;;;9153876;19;20018;-72
2023/11/21 14:45:30;;;;;;;12.60;6.57;;;9.80;90.50;;;;;;9160806;19;20029;-72
2023/11/21 14:48:42;;;;;;;19.25;6.63;;;9.70;90.50;;;;;;9165879;19;20018;-72
2023/11/21 14:51:59;;;;;;;11.43;6.95;;;9.70;90.60;;;;;;9162396;19;20507;-71
2023/11/21 14:58:29;;;;;;;12.60;6.57;;;9.70;90.40;;;;;;9162592;19;20021;-72
2023/11/21 15:01:44;;;;;;;12.93;7.88;;;9.70;90.40;;;;;;9162673;19;20014;-72
2023/11/21 15:04:52;;;;;;;11.85;6.93;;;9.70;90.60;;;;;;9162468;19;20026;-72
2023/11/21 15:08:13;;;;;;;11.23;6.78;;;9.70;91.20;;;;;;9161951;19;20014;-72
2023/11/21 15:11:16;;;;;;;12.55;6.50;;;9.50;90.00;;;;;;9163769;19;20713;-71
2023/11/21 15:14:31;;;;;;;10.38;6.25;;;9.60;90.30;;;;;;9161677;19;20029;-72
2023/11/21 15:17:36;;;;;;;11.65;7.13;;;9.60;90.20;;;;;;9164004;19;20058;-73
2023/11/21 15:20:45;;;;;;;12.98;7.43;;;9.50;90.20;;;;;;9164303;19;20476;-72
2023/11/21 15:23:51;;;;;;;14.13;7.20;;;9.50;90.20;;;;;;9157837;19;20339;-71
2023/11/21 15:26:59;;;;;;;10.25;6.65;;;9.50;90.20;;;;;;9163334;19;20018;-71
2023/11/21 15:30:09;;;;;;;14.05;7.55;;;9.50;90.20;;;;;;9159159;19;20010;-72
2023/11/21 15:33:16;;;;;;;11.35;7.45;;;9.50;90.10;;;;;;9151263;19;20018;-71
2023/11/21 15:36:21;;;;;;;13.32;6.85;;;9.50;90.20;;;;;;9160913;19;20508;-72
2023/11/21 15:39:30;;;;;;;14.10;7.32;;;9.50;90.20;;;;;;9164514;19;20052;-71
2023/11/21 15:42:37;;;;;;;12.88;7.32;;;9.50;90.10;;;;;;9158686;19;20007;-71
2023/11/21 15:45:46;;;;;;;11.73;7.07;;;9.40;90.10;;;;;;9156610;19;20051;-72
2023/11/21 15:48:54;;;;;;;16.00;7.20;;;9.40;90.10;;;;;;9160727;19;20052;-71
2023/11/21 15:52:02;;;;;;;11.75;7.28;;;9.40;90.10;;;;;;9162209;19;20475;-71
2023/11/21 15:55:09;;;;;;;13.95;8.13;;;10.20;90.30;;;;;;9148443;19;20772;-72
2023/11/21 15:58:16;;;;;;;10.85;7.15;;;9.40;90.10;;;;;;9162987;19;20029;-73
2023/11/21 16:01:25;;;;;;;11.68;6.55;;;9.30;90.00;;;;;;9160122;19;20014;-70
2023/11/21 16:04:33;;;;;;;11.45;7.38;;;9.30;90.00;;;;;;9159938;19;20052;-72
2023/11/21 16:07:39;;;;;;;12.90;7.75;;;9.30;90.00;;;;;;9161572;19;20010;-70
2023/11/21 16:10:46;;;;;;;15.23;7.82;;;9.30;90.00;;;;;;9161110;19;20345;-73